createdAt,value
2016-05-14T00:00:58.436Z,19.46
2016-05-14T00:01:58.471Z,19.33
2016-05-14T00:02:58.974Z,19.29
2016-05-14T00:03:58.522Z,19.43
2016-05-14T00:04:58.386Z,19.33
2016-05-14T00:05:58.574Z,19.39
2016-05-14T00:06:58.594Z,19.44
2016-05-14T00:07:58.643Z,19.29
2016-05-14T00:08:58.646Z,19.33
2016-05-14T00:09:58.663Z,19.41
2016-05-14T00:10:58.682Z,19.28
2016-05-14T00:11:58.544Z,19.29
2016-05-14T00:12:58.735Z,19.31
2016-05-14T00:13:58.769Z,19.26
2016-05-14T00:14:58.631Z,19.26
2016-05-14T00:15:58.821Z,19.22
2016-05-14T00:16:58.839Z,19.28
2016-05-14T00:17:58.796Z,19.28
2016-05-14T00:18:58.876Z,19.29
2016-05-14T00:19:58.754Z,19.21
2016-05-14T00:20:58.928Z,19.19
2016-05-14T00:21:58.962Z,19.23
2016-05-14T00:22:58.996Z,19.22
2016-05-14T00:23:58.999Z,19.22
2016-05-14T00:24:59.033Z,19.21
2016-05-14T00:25:59.066Z,19.22
2016-05-14T00:26:59.084Z,19.25
2016-05-14T00:27:59.103Z,19.18
2016-05-14T00:28:59.137Z,19.19
2016-05-14T00:29:58.999Z,19.18
2016-05-14T00:30:59.017Z,19.16
2016-05-14T00:31:59.052Z,19.14
2016-05-14T00:32:59.195Z,19.18
2016-05-14T00:33:59.244Z,19.07
2016-05-14T00:34:59.277Z,19.1
2016-05-14T00:35:59.313Z,19.11
2016-05-14T00:36:59.330Z,19.1
2016-05-14T00:37:59.349Z,19.07
2016-05-14T00:38:59.383Z,19
2016-05-14T00:39:59.244Z,19.06
2016-05-14T00:40:59.419Z,19.11
2016-05-14T00:41:59.438Z,19.08
2016-05-14T00:42:59.471Z,19.1
2016-05-14T00:43:59.505Z,19.06
2016-05-14T00:44:59.523Z,19.06
2016-05-14T00:45:59.543Z,19.06
2016-05-14T00:46:59.577Z,19.14
2016-05-14T00:47:59.782Z,19.08
2016-05-14T00:48:59.613Z,19.1
2016-05-14T00:49:59.646Z,19.06
2016-05-14T00:50:59.665Z,19.07
2016-05-14T00:51:59.698Z,19.08
2016-05-14T00:52:59.717Z,19.04
2016-05-14T00:53:59.736Z,18.92
2016-05-14T00:54:59.754Z,19
2016-05-14T00:55:59.632Z,19.07
2016-05-14T00:56:59.665Z,19.02
2016-05-14T00:57:59.855Z,18.91
2016-05-14T00:58:59.858Z,19.07
2016-05-14T00:59:59.736Z,18.99
2016-05-14T01:00:59.911Z,19.08
2016-05-14T01:01:59.773Z,19.07
2016-05-14T01:03:00.275Z,19
2016-05-14T01:03:59.981Z,19
2016-05-14T01:04:59.999Z,19
2016-05-14T01:05:59.877Z,18.99
2016-05-14T01:06:59.896Z,18.9
2016-05-14T01:07:59.914Z,19.02
2016-05-14T01:09:00.105Z,18.91
2016-05-14T01:10:00.122Z,18.99
2016-05-14T01:11:00.157Z,18.98
2016-05-14T01:12:00.174Z,19.04
2016-05-14T01:13:00.208Z,19.04
2016-05-14T01:14:00.227Z,18.99
2016-05-14T01:15:00.245Z,18.9
2016-05-14T01:16:00.280Z,18.98
2016-05-14T01:17:00.313Z,18.99
2016-05-14T01:18:00.503Z,18.88
2016-05-14T01:19:00.350Z,18.95
2016-05-14T01:20:00.384Z,18.92
2016-05-14T01:21:00.401Z,18.98
2016-05-14T01:22:00.420Z,18.94
2016-05-14T01:23:00.298Z,18.99
2016-05-14T01:24:00.473Z,18.94
2016-05-14T01:25:00.490Z,18.87
2016-05-14T01:26:00.525Z,18.91
2016-05-14T01:27:00.543Z,18.9
2016-05-14T01:28:00.577Z,18.88
2016-05-14T01:29:00.595Z,18.92
2016-05-14T01:30:00.629Z,18.9
2016-05-14T01:31:00.648Z,18.88
2016-05-14T01:32:00.698Z,18.95
2016-05-14T01:33:00.559Z,18.9
2016-05-14T01:34:00.734Z,18.9
2016-05-14T01:35:00.737Z,18.94
2016-05-14T01:36:00.770Z,18.9
2016-05-14T01:37:00.788Z,18.95
2016-05-14T01:38:00.494Z,18.92
2016-05-14T01:39:20.122Z,18.94
2016-05-14T01:40:00.860Z,18.94
2016-05-14T01:41:00.893Z,18.92
2016-05-14T01:42:00.912Z,18.95
2016-05-14T01:43:00.929Z,18.91
2016-05-14T01:44:00.791Z,18.94
2016-05-14T01:45:00.982Z,18.95
2016-05-14T01:46:01.001Z,18.92
2016-05-14T01:47:01.035Z,18.98
2016-05-14T01:48:01.662Z,19
2016-05-14T01:49:01.087Z,18.91
2016-05-14T01:50:01.104Z,18.9
2016-05-14T01:51:01.124Z,18.95
2016-05-14T01:52:01.142Z,18.95
2016-05-14T01:53:01.176Z,18.91
2016-05-14T01:54:01.193Z,18.92
2016-05-14T01:55:01.228Z,18.91
2016-05-14T01:56:01.246Z,18.92
2016-05-14T01:57:01.264Z,18.94
2016-05-14T01:58:01.299Z,18.91
2016-05-14T01:59:01.317Z,18.92
2016-05-14T02:00:01.351Z,18.9
2016-05-14T02:01:01.212Z,18.9
2016-05-14T02:02:01.387Z,18.94
2016-05-14T02:03:01.422Z,18.95
2016-05-14T02:04:01.455Z,18.91
2016-05-14T02:05:01.489Z,18.92
2016-05-14T02:06:01.491Z,18.94
2016-05-14T02:07:01.525Z,18.91
2016-05-14T02:08:01.388Z,18.91
2016-05-14T02:09:01.563Z,18.98
2016-05-14T02:10:01.581Z,18.95
2016-05-14T02:11:01.614Z,18.94
2016-05-14T02:12:01.633Z,18.88
2016-05-14T02:13:01.510Z,18.91
2016-05-14T02:14:01.685Z,18.92
2016-05-14T02:15:01.704Z,18.95
2016-05-14T02:16:01.738Z,18.95
2016-05-14T02:17:01.756Z,18.88
2016-05-14T02:18:01.790Z,18.95
2016-05-14T02:19:02.011Z,18.98
2016-05-14T02:20:01.826Z,18.92
2016-05-14T02:21:01.704Z,18.92
2016-05-14T02:22:01.723Z,18.92
2016-05-14T02:23:01.896Z,18.94
2016-05-14T02:24:01.946Z,18.95
2016-05-14T02:25:01.949Z,18.95
2016-05-14T02:26:01.984Z,18.92
2016-05-14T02:27:01.845Z,18.9
2016-05-14T02:28:02.034Z,18.9
2016-05-14T02:29:01.898Z,18.87
2016-05-14T02:30:02.073Z,18.87
2016-05-14T02:31:02.090Z,18.91
2016-05-14T02:32:01.968Z,18.9
2016-05-14T02:33:02.143Z,18.95
2016-05-14T02:34:02.067Z,18.9
2016-05-14T02:35:02.195Z,18.87
2016-05-14T02:36:02.072Z,18.88
2016-05-14T02:37:02.325Z,18.88
2016-05-14T02:38:02.016Z,18.94
2016-05-14T02:39:02.284Z,18.91
2016-05-14T02:40:02.318Z,18.88
2016-05-14T02:41:02.336Z,18.88
2016-05-14T02:42:02.213Z,18.85
2016-05-14T02:43:02.232Z,18.92
2016-05-14T02:44:02.375Z,18.9
2016-05-14T02:45:02.441Z,18.87
2016-05-14T02:46:02.458Z,18.87
2016-05-14T02:47:02.477Z,18.91
2016-05-14T02:48:02.511Z,18.82
2016-05-14T02:49:02.560Z,18.85
2016-05-14T02:50:02.563Z,18.87
2016-05-14T02:51:02.581Z,18.85
2016-05-14T02:52:02.443Z,18.84
2016-05-14T02:53:02.650Z,18.9
2016-05-14T02:54:02.495Z,18.8
2016-05-14T02:55:02.514Z,18.88
2016-05-14T02:56:02.704Z,18.85
2016-05-14T02:57:02.738Z,18.81
2016-05-14T02:58:02.757Z,18.9
2016-05-14T02:59:02.775Z,18.84
2016-05-14T03:00:02.793Z,18.9
2016-05-14T03:01:02.827Z,18.76
2016-05-14T03:02:02.861Z,18.81
2016-05-14T03:03:02.879Z,18.81
2016-05-14T03:04:02.586Z,18.78
2016-05-14T03:05:02.931Z,18.87
2016-05-14T03:06:02.950Z,18.81
2016-05-14T03:07:02.969Z,18.9
2016-05-14T03:08:02.986Z,18.81
2016-05-14T03:09:03.036Z,18.8
2016-05-14T03:10:03.039Z,18.81
2016-05-14T03:11:03.057Z,18.82
2016-05-14T03:12:03.091Z,18.76
2016-05-14T03:13:03.110Z,18.76
2016-05-14T03:14:03.144Z,18.82
2016-05-14T03:15:03.161Z,18.82
2016-05-14T03:16:03.180Z,18.82
2016-05-14T03:17:03.214Z,18.84
2016-05-14T03:18:03.232Z,18.8
2016-05-14T03:19:03.266Z,18.76
2016-05-14T03:20:03.128Z,18.85
2016-05-14T03:21:03.302Z,18.82
2016-05-14T03:22:03.352Z,18.78
2016-05-14T03:23:03.355Z,18.76
2016-05-14T03:24:03.374Z,18.85
2016-05-14T03:25:03.407Z,18.85
2016-05-14T03:26:03.426Z,18.82
2016-05-14T03:27:03.303Z,18.78
2016-05-14T03:28:03.478Z,18.82
2016-05-14T03:29:03.356Z,18.85
2016-05-14T03:30:03.530Z,18.82
2016-05-14T03:31:03.549Z,18.78
2016-05-14T03:32:03.582Z,18.82
2016-05-14T03:33:03.601Z,18.82
2016-05-14T03:34:03.869Z,18.87
2016-05-14T03:35:03.653Z,18.76
2016-05-14T03:36:03.531Z,18.78
2016-05-14T03:37:03.689Z,18.81
2016-05-14T03:38:03.723Z,18.76
2016-05-14T03:39:03.586Z,18.85
2016-05-14T03:40:03.604Z,18.78
2016-05-14T03:41:03.794Z,18.76
2016-05-14T03:42:03.656Z,18.81
2016-05-14T03:43:03.691Z,18.82
2016-05-14T03:44:03.864Z,18.81
2016-05-14T03:45:03.586Z,18.81
2016-05-14T03:46:03.916Z,18.73
2016-05-14T03:47:03.935Z,18.78
2016-05-14T03:48:03.969Z,18.82
2016-05-14T03:49:03.831Z,18.82
2016-05-14T03:50:04.005Z,18.76
2016-05-14T03:51:04.040Z,18.78
2016-05-14T03:52:04.058Z,18.84
2016-05-14T03:53:04.076Z,18.73
2016-05-14T03:54:04.110Z,18.75
2016-05-14T03:55:04.129Z,18.84
2016-05-14T03:56:04.146Z,18.73
2016-05-14T03:57:04.182Z,18.8
2016-05-14T03:58:04.042Z,18.82
2016-05-14T03:59:04.233Z,18.8
2016-05-14T04:00:04.252Z,18.75
2016-05-14T04:01:04.114Z,18.72
2016-05-14T04:02:04.304Z,18.73
2016-05-14T04:03:04.322Z,18.75
2016-05-14T04:04:04.450Z,18.66
2016-05-14T04:05:04.375Z,18.81
2016-05-14T04:06:04.392Z,18.75
2016-05-14T04:07:04.426Z,18.72
2016-05-14T04:08:04.445Z,18.75
2016-05-14T04:09:04.464Z,18.67
2016-05-14T04:10:04.498Z,18.73
2016-05-14T04:11:04.531Z,18.72
2016-05-14T04:12:04.550Z,18.75
2016-05-14T04:13:04.567Z,18.75
2016-05-14T04:14:04.586Z,18.66
2016-05-14T04:15:04.447Z,18.76
2016-05-14T04:16:04.482Z,18.73
2016-05-14T04:17:04.500Z,18.72
2016-05-14T04:18:04.691Z,18.72
2016-05-14T04:19:04.849Z,18.73
2016-05-14T04:20:04.733Z,18.69
2016-05-14T04:21:04.810Z,18.75
2016-05-14T04:22:04.887Z,18.72
2016-05-14T04:23:04.964Z,18.7
2016-05-14T04:24:05.009Z,18.72
2016-05-14T04:25:05.082Z,18.73
2016-05-14T04:26:05.117Z,18.72
2016-05-14T04:27:05.165Z,18.78
2016-05-14T04:28:05.028Z,18.81
2016-05-14T04:29:05.233Z,18.69
2016-05-14T04:30:05.280Z,18.72
2016-05-14T04:31:05.149Z,18.72
2016-05-14T04:32:05.329Z,18.72
2016-05-14T04:33:05.353Z,18.7
2016-05-14T04:34:05.533Z,18.7
2016-05-14T04:35:05.416Z,18.75
2016-05-14T04:36:05.437Z,18.78
2016-05-14T04:37:05.317Z,18.7
2016-05-14T04:38:05.493Z,18.69
2016-05-14T04:39:05.513Z,18.7
2016-05-14T04:40:05.392Z,18.7
2016-05-14T04:41:05.584Z,18.73
2016-05-14T04:42:05.431Z,18.73
2016-05-14T04:43:05.466Z,18.72
2016-05-14T04:44:05.500Z,18.73
2016-05-14T04:45:05.676Z,18.65
2016-05-14T04:46:05.694Z,18.65
2016-05-14T04:47:05.729Z,18.7
2016-05-14T04:48:05.590Z,18.72
2016-05-14T04:49:05.782Z,18.62
2016-05-14T04:50:05.816Z,18.7
2016-05-14T04:51:05.818Z,18.7
2016-05-14T04:52:05.852Z,18.7
2016-05-14T04:53:05.870Z,18.63
2016-05-14T04:54:05.888Z,18.63
2016-05-14T04:55:05.751Z,18.66
2016-05-14T04:56:05.941Z,18.62
2016-05-14T04:57:05.960Z,18.7
2016-05-14T04:58:05.993Z,18.63
2016-05-14T04:59:05.856Z,18.7
2016-05-14T05:00:06.029Z,18.66
2016-05-14T05:01:06.095Z,18.66
2016-05-14T05:02:06.082Z,18.63
2016-05-14T05:03:06.131Z,18.7
2016-05-14T05:04:06.745Z,18.63
2016-05-14T05:05:06.153Z,18.63
2016-05-14T05:06:06.187Z,18.63
2016-05-14T05:07:06.190Z,18.65
2016-05-14T05:08:06.223Z,18.6
2016-05-14T05:09:06.258Z,18.62
2016-05-14T05:10:06.275Z,18.66
2016-05-14T05:11:06.294Z,18.62
2016-05-14T05:12:06.328Z,18.65
2016-05-14T05:13:06.190Z,18.65
2016-05-14T05:14:06.365Z,18.65
2016-05-14T05:15:06.399Z,18.58
2016-05-14T05:16:06.417Z,18.58
2016-05-14T05:17:06.450Z,18.62
2016-05-14T05:18:06.469Z,18.65
2016-05-14T05:19:06.346Z,18.67
2016-05-14T05:20:06.366Z,18.66
2016-05-14T05:21:06.540Z,18.62
2016-05-14T05:22:06.574Z,18.69
2016-05-14T05:23:06.608Z,18.69
2016-05-14T05:24:06.719Z,18.62
2016-05-14T05:25:06.629Z,18.63
2016-05-14T05:26:06.662Z,18.7
2016-05-14T05:27:06.681Z,18.69
2016-05-14T05:28:06.715Z,18.7
2016-05-14T05:29:06.733Z,18.65
2016-05-14T05:30:06.751Z,18.62
2016-05-14T05:31:06.785Z,18.67
2016-05-14T05:32:06.804Z,18.65
2016-05-14T05:33:06.822Z,18.63
2016-05-14T05:34:06.543Z,18.72
2016-05-14T05:35:06.874Z,18.72
2016-05-14T05:36:06.908Z,18.69
2016-05-14T05:37:06.770Z,18.66
2016-05-14T05:38:06.945Z,18.73
2016-05-14T05:39:06.978Z,18.72
2016-05-14T05:40:06.997Z,18.78
2016-05-14T05:41:07.030Z,18.82
2016-05-14T05:42:07.049Z,18.78
2016-05-14T05:43:07.068Z,18.81
2016-05-14T05:44:07.102Z,18.87
2016-05-14T05:45:07.183Z,18.8
2016-05-14T05:46:07.138Z,18.78
2016-05-14T05:47:07.016Z,18.88
2016-05-14T05:48:07.191Z,18.92
2016-05-14T05:49:07.490Z,18.94
2016-05-14T05:50:07.227Z,18.87
2016-05-14T05:51:07.260Z,18.95
2016-05-14T05:52:07.295Z,18.98
2016-05-14T05:53:07.314Z,18.95
2016-05-14T05:54:07.332Z,18.98
2016-05-14T05:55:07.366Z,18.91
2016-05-14T05:56:07.384Z,19
2016-05-14T05:57:07.402Z,18.88
2016-05-14T05:58:07.421Z,18.88
2016-05-14T05:59:07.454Z,18.88
2016-05-14T06:00:07.473Z,19.07
2016-05-14T06:01:07.350Z,18.94
2016-05-14T06:02:07.526Z,19
2016-05-14T06:03:07.543Z,19.07
2016-05-14T06:04:07.437Z,19
2016-05-14T06:05:07.596Z,19.11
2016-05-14T06:06:07.629Z,19.02
2016-05-14T06:07:07.507Z,19.08
2016-05-14T06:08:07.667Z,19.06
2016-05-14T06:09:07.544Z,19.13
2016-05-14T06:10:07.750Z,18.92
2016-05-14T06:11:07.752Z,19.04
2016-05-14T06:12:07.770Z,19.04
2016-05-14T06:13:07.789Z,19.04
2016-05-14T06:14:07.823Z,19.07
2016-05-14T06:15:07.842Z,19.04
2016-05-14T06:16:07.875Z,19.14
2016-05-14T06:17:07.894Z,19.1
2016-05-14T06:18:07.911Z,19.07
2016-05-14T06:19:07.961Z,19.13
2016-05-14T06:20:07.963Z,19.13
2016-05-14T06:21:07.997Z,19.18
2016-05-14T06:22:07.860Z,19.21
2016-05-14T06:23:08.035Z,19.31
2016-05-14T06:24:08.053Z,19.23
2016-05-14T06:25:08.087Z,19.26
2016-05-14T06:26:07.965Z,19.23
2016-05-14T06:27:07.982Z,19.25
2016-05-14T06:28:08.157Z,19.39
2016-05-14T06:29:08.191Z,19.43
2016-05-14T06:30:08.209Z,19.44
2016-05-14T06:31:08.071Z,19.44
2016-05-14T06:32:08.090Z,19.47
2016-05-14T06:33:08.280Z,19.5
2016-05-14T06:34:08.330Z,19.54
2016-05-14T06:35:08.332Z,19.48
2016-05-14T06:36:08.195Z,19.56
2016-05-14T06:37:08.369Z,19.55
2016-05-14T06:38:08.403Z,19.48
2016-05-14T06:39:08.421Z,19.62
2016-05-14T06:40:08.455Z,19.68
2016-05-14T06:41:08.473Z,19.65
2016-05-14T06:42:08.507Z,19.68
2016-05-14T06:43:08.525Z,19.76
2016-05-14T06:44:08.545Z,19.76
2016-05-14T06:45:08.578Z,19.8
2016-05-14T06:46:08.612Z,19.84
2016-05-14T06:47:08.630Z,19.92
2016-05-14T06:48:08.649Z,19.88
2016-05-14T06:49:08.917Z,19.88
2016-05-14T06:50:08.560Z,20.02
2016-05-14T06:51:08.719Z,20.06
2016-05-14T06:52:08.752Z,20.03
2016-05-14T06:53:08.772Z,20.08
2016-05-14T06:54:08.806Z,20.21
2016-05-14T06:55:08.839Z,20.14
2016-05-14T06:56:08.858Z,20.24
2016-05-14T06:57:08.876Z,20.28
2016-05-14T06:58:08.738Z,20.29
2016-05-14T06:59:08.929Z,20.36
2016-05-14T07:00:08.962Z,20.43
2016-05-14T07:01:08.824Z,20.42
2016-05-14T07:02:09.014Z,20.48
2016-05-14T07:03:08.860Z,20.62
2016-05-14T07:04:09.645Z,20.55
2016-05-14T07:05:09.084Z,20.61
2016-05-14T07:06:09.119Z,20.67
2016-05-14T07:07:08.965Z,20.67
2016-05-14T07:08:08.999Z,20.67
2016-05-14T07:09:09.018Z,20.69
2016-05-14T07:10:09.051Z,20.72
2016-05-14T07:11:09.226Z,20.8
2016-05-14T07:12:09.259Z,20.82
2016-05-14T07:13:09.278Z,20.89
2016-05-14T07:14:09.312Z,20.89
2016-05-14T07:15:09.190Z,20.87
2016-05-14T07:16:09.365Z,20.91
2016-05-14T07:17:09.383Z,20.94
2016-05-14T07:18:09.401Z,20.82
2016-05-14T07:19:09.998Z,20.87
2016-05-14T07:20:09.453Z,20.91
2016-05-14T07:21:09.488Z,20.91
2016-05-14T07:22:09.521Z,20.95
2016-05-14T07:23:09.539Z,20.94
2016-05-14T07:24:09.558Z,20.92
2016-05-14T07:25:09.592Z,20.98
2016-05-14T07:26:09.627Z,20.98
2016-05-14T07:27:09.643Z,21.04
2016-05-14T07:28:09.678Z,21.07
2016-05-14T07:29:09.697Z,21.1
2016-05-14T07:30:09.715Z,21.17
2016-05-14T07:31:09.749Z,21.09
2016-05-14T07:32:09.626Z,21.1
2016-05-14T07:33:10.082Z,21.17
2016-05-14T07:34:09.679Z,21.19
2016-05-14T07:35:09.853Z,21.24
2016-05-14T07:36:09.871Z,21.17
2016-05-14T07:37:09.906Z,21.17
2016-05-14T07:38:09.940Z,21.19
2016-05-14T07:39:09.958Z,21.29
2016-05-14T07:40:09.976Z,21.22
2016-05-14T07:41:10.010Z,21.24
2016-05-14T07:42:10.044Z,21.32
2016-05-14T07:43:10.061Z,21.31
2016-05-14T07:44:10.096Z,21.35
2016-05-14T07:45:10.098Z,21.37
2016-05-14T07:46:10.148Z,21.38
2016-05-14T07:47:10.167Z,21.43
2016-05-14T07:48:10.201Z,21.32
2016-05-14T07:49:10.798Z,21.37
2016-05-14T07:50:10.237Z,21.42
2016-05-14T07:51:10.272Z,21.37
2016-05-14T07:52:10.305Z,21.42
2016-05-14T07:53:10.324Z,21.32
2016-05-14T07:54:10.186Z,21.4
2016-05-14T07:55:10.219Z,21.32
2016-05-14T07:56:10.253Z,21.35
2016-05-14T07:57:10.428Z,21.38
2016-05-14T07:58:10.462Z,21.35
2016-05-14T07:59:10.324Z,21.42
2016-05-14T08:00:10.499Z,21.38
2016-05-14T08:01:10.533Z,21.32
2016-05-14T08:02:10.551Z,21.38
2016-05-14T08:03:10.585Z,21.28
2016-05-14T08:04:10.791Z,21.31
2016-05-14T08:05:10.481Z,21.35
2016-05-14T08:06:10.671Z,21.32
2016-05-14T08:07:10.532Z,21.35
2016-05-14T08:08:10.707Z,21.29
2016-05-14T08:09:10.742Z,21.28
2016-05-14T08:10:10.760Z,21.19
2016-05-14T08:11:10.794Z,21.25
2016-05-14T08:12:10.828Z,21.21
2016-05-14T08:13:10.845Z,21.24
2016-05-14T08:14:10.880Z,21.22
2016-05-14T08:15:10.586Z,21.25
2016-05-14T08:16:10.776Z,21.24
2016-05-14T08:17:10.950Z,21.22
2016-05-14T08:18:11.000Z,21.28
2016-05-14T08:19:10.972Z,21.22
2016-05-14T08:20:11.021Z,21.22
2016-05-14T08:21:11.055Z,21.25
2016-05-14T08:22:11.073Z,21.28
2016-05-14T08:23:11.108Z,21.19
2016-05-14T08:24:11.141Z,21.22
2016-05-14T08:25:11.003Z,21.27
2016-05-14T08:26:11.194Z,21.27
2016-05-14T08:27:11.211Z,21.27
2016-05-14T08:28:11.246Z,21.24
2016-05-14T08:29:11.279Z,21.32
2016-05-14T08:30:11.313Z,21.22
2016-05-14T08:31:11.301Z,21.24
2016-05-14T08:32:11.350Z,21.28
2016-05-14T08:33:11.369Z,21.24
2016-05-14T08:34:11.966Z,21.28
2016-05-14T08:35:11.265Z,21.22
2016-05-14T08:36:11.440Z,21.27
2016-05-14T08:37:11.473Z,21.22
2016-05-14T08:38:11.491Z,21.25
2016-05-14T08:39:11.510Z,21.25
2016-05-14T08:40:11.543Z,21.29
2016-05-14T08:41:11.421Z,21.28
2016-05-14T08:42:11.596Z,21.27
2016-05-14T08:43:11.629Z,21.31
2016-05-14T08:44:11.648Z,21.25
2016-05-14T08:45:11.682Z,21.25
2016-05-14T08:46:11.545Z,21.28
2016-05-14T08:47:11.765Z,21.24
2016-05-14T08:48:11.768Z,21.27
2016-05-14T08:49:11.818Z,21.28
2016-05-14T08:50:11.805Z,21.27
2016-05-14T08:51:11.839Z,21.22
2016-05-14T08:52:11.700Z,21.24
2016-05-14T08:53:11.891Z,21.19
2016-05-14T08:54:11.909Z,21.25
2016-05-14T08:55:11.944Z,21.22
2016-05-14T08:56:11.977Z,21.25
2016-05-14T08:57:11.996Z,21.29
2016-05-14T08:58:12.014Z,21.25
2016-05-14T08:59:12.048Z,21.32
2016-05-14T09:00:12.066Z,21.24
2016-05-14T09:01:12.100Z,21.29
2016-05-14T09:02:12.118Z,21.22
2016-05-14T09:03:12.465Z,21.22
2016-05-14T09:04:12.640Z,21.27
2016-05-14T09:05:12.188Z,21.32
2016-05-14T09:06:12.223Z,21.37
2016-05-14T09:07:12.256Z,21.17
2016-05-14T09:08:12.276Z,21.22
2016-05-14T09:09:12.294Z,21.22
2016-05-14T09:10:12.343Z,21.21
2016-05-14T09:11:12.362Z,21.21
2016-05-14T09:12:12.379Z,21.21
2016-05-14T09:13:12.398Z,21.31
2016-05-14T09:14:12.276Z,21.21
2016-05-14T09:15:12.450Z,21.31
2016-05-14T09:16:12.484Z,21.24
2016-05-14T09:17:12.517Z,21.28
2016-05-14T09:18:12.536Z,21.29
2016-05-14T09:19:12.587Z,21.32
2016-05-14T09:20:12.432Z,21.34
2016-05-14T09:21:12.607Z,21.32
2016-05-14T09:22:12.500Z,21.28
2016-05-14T09:23:12.691Z,21.27
2016-05-14T09:24:12.537Z,21.32
2016-05-14T09:25:12.711Z,21.32
2016-05-14T09:26:12.745Z,21.38
2016-05-14T09:27:12.622Z,21.37
2016-05-14T09:28:12.797Z,21.38
2016-05-14T09:29:12.675Z,21.38
2016-05-14T09:30:12.849Z,21.4
2016-05-14T09:31:12.869Z,21.35
2016-05-14T09:32:12.746Z,21.37
2016-05-14T09:33:13.108Z,21.38
2016-05-14T09:34:13.346Z,21.4
2016-05-14T09:35:12.988Z,21.38
2016-05-14T09:36:13.007Z,21.4
2016-05-14T09:37:13.040Z,21.38
2016-05-14T09:38:13.059Z,21.42
2016-05-14T09:39:13.077Z,21.43
2016-05-14T09:40:13.111Z,21.43
2016-05-14T09:41:13.145Z,21.37
2016-05-14T09:42:13.178Z,21.42
2016-05-14T09:43:13.181Z,21.44
2016-05-14T09:44:13.076Z,21.4
2016-05-14T09:45:13.250Z,21.46
2016-05-14T09:46:13.268Z,21.5
2016-05-14T09:47:13.286Z,21.53
2016-05-14T09:48:13.179Z,21.53
2016-05-14T09:49:13.370Z,21.5
2016-05-14T09:50:13.372Z,21.53
2016-05-14T09:51:13.437Z,21.5
2016-05-14T09:52:13.425Z,21.5
2016-05-14T09:53:13.302Z,21.47
2016-05-14T09:54:13.477Z,21.5
2016-05-14T09:55:13.355Z,21.46
2016-05-14T09:56:13.389Z,21.47
2016-05-14T09:57:13.563Z,21.46
2016-05-14T09:58:13.581Z,21.54
2016-05-14T09:59:13.631Z,21.49
2016-05-14T10:00:13.493Z,21.42
2016-05-14T10:01:13.668Z,21.4
2016-05-14T10:02:13.686Z,21.53
2016-05-14T10:03:13.719Z,21.47
2016-05-14T10:04:13.738Z,21.4
2016-05-14T10:05:13.772Z,21.38
2016-05-14T10:06:13.790Z,21.46
2016-05-14T10:07:13.824Z,21.46
2016-05-14T10:08:13.874Z,21.44
2016-05-14T10:09:13.877Z,21.42
2016-05-14T10:10:13.896Z,21.43
2016-05-14T10:11:13.928Z,21.43
2016-05-14T10:12:13.948Z,21.46
2016-05-14T10:13:13.982Z,21.4
2016-05-14T10:14:13.999Z,21.43
2016-05-14T10:15:14.034Z,21.4
2016-05-14T10:16:13.895Z,21.46
2016-05-14T10:17:14.086Z,21.47
2016-05-14T10:18:14.401Z,21.44
2016-05-14T10:19:14.825Z,21.43
2016-05-14T10:20:14.156Z,21.47
2016-05-14T10:21:14.189Z,21.53
2016-05-14T10:22:14.208Z,21.38
2016-05-14T10:23:14.243Z,21.5
2016-05-14T10:24:14.276Z,21.5
2016-05-14T10:25:14.139Z,21.47
2016-05-14T10:26:14.328Z,21.5
2016-05-14T10:27:14.347Z,21.47
2016-05-14T10:28:14.366Z,21.42
2016-05-14T10:29:14.414Z,21.38
2016-05-14T10:30:14.277Z,21.46
2016-05-14T10:31:14.467Z,21.44
2016-05-14T10:32:14.469Z,21.34
2016-05-14T10:33:14.675Z,21.46
2016-05-14T10:34:15.022Z,21.4
2016-05-14T10:35:14.555Z,21.34
2016-05-14T10:36:14.605Z,21.31
2016-05-14T10:37:14.608Z,21.37
2016-05-14T10:38:14.643Z,21.34
2016-05-14T10:39:14.661Z,21.38
2016-05-14T10:40:14.679Z,21.37
2016-05-14T10:41:14.713Z,21.35
2016-05-14T10:42:14.747Z,21.34
2016-05-14T10:43:14.765Z,21.31
2016-05-14T10:44:14.799Z,21.29
2016-05-14T10:45:14.817Z,21.32
2016-05-14T10:46:14.867Z,21.21
2016-05-14T10:47:14.729Z,21.22
2016-05-14T10:48:14.903Z,21.27
2016-05-14T10:49:14.781Z,21.21
2016-05-14T10:50:14.955Z,21.28
2016-05-14T10:51:14.973Z,21.19
2016-05-14T10:52:15.009Z,21.19
2016-05-14T10:53:15.026Z,21.19
2016-05-14T10:54:15.060Z,21.16
2016-05-14T10:55:15.078Z,21.1
2016-05-14T10:56:15.112Z,21.07
2016-05-14T10:57:15.131Z,21.17
2016-05-14T10:58:15.008Z,21.04
2016-05-14T10:59:15.199Z,21.06
2016-05-14T11:00:15.217Z,21.1
2016-05-14T11:01:15.236Z,21.13
2016-05-14T11:02:15.269Z,21.14
2016-05-14T11:03:15.288Z,21.12
2016-05-14T11:04:15.305Z,21.06
2016-05-14T11:05:15.340Z,20.97
2016-05-14T11:06:15.374Z,21.07
2016-05-14T11:07:15.391Z,21.04
2016-05-14T11:08:15.427Z,21.13
2016-05-14T11:09:15.443Z,21.13
2016-05-14T11:10:15.462Z,21.14
2016-05-14T11:11:15.372Z,21.16
2016-05-14T11:12:15.530Z,21.13
2016-05-14T11:13:15.549Z,21.14
2016-05-14T11:14:15.567Z,21.17
2016-05-14T11:15:15.445Z,21.16
2016-05-14T11:16:15.620Z,21.13
2016-05-14T11:17:15.654Z,21.21
2016-05-14T11:18:15.968Z,21.21
2016-05-14T11:19:16.159Z,21.22
2016-05-14T11:20:15.740Z,21.25
2016-05-14T11:21:15.601Z,21.21
2016-05-14T11:22:15.792Z,21.24
2016-05-14T11:23:15.669Z,21.25
2016-05-14T11:24:15.844Z,21.25
2016-05-14T11:25:15.862Z,21.24
2016-05-14T11:26:15.897Z,21.24
2016-05-14T11:27:15.915Z,21.34
2016-05-14T11:28:15.948Z,21.35
2016-05-14T11:29:15.966Z,21.37
2016-05-14T11:30:16.032Z,21.38
2016-05-14T11:31:15.863Z,21.35
2016-05-14T11:32:16.038Z,21.4
2016-05-14T11:33:16.383Z,21.31
2016-05-14T11:34:16.293Z,21.4
2016-05-14T11:35:16.124Z,21.44
2016-05-14T11:36:16.158Z,21.43
2016-05-14T11:37:16.176Z,21.49
2016-05-14T11:38:16.210Z,21.5
2016-05-14T11:39:16.228Z,21.47
2016-05-14T11:40:16.246Z,21.53
2016-05-14T11:41:16.280Z,21.54
2016-05-14T11:42:16.142Z,21.58
2016-05-14T11:43:16.332Z,21.56
2016-05-14T11:44:16.351Z,21.58
2016-05-14T11:45:16.229Z,21.53
2016-05-14T11:46:16.262Z,21.58
2016-05-14T11:47:16.437Z,21.59
2016-05-14T11:48:16.987Z,21.56
2016-05-14T11:49:16.365Z,21.62
2016-05-14T11:50:16.523Z,21.62
2016-05-14T11:51:16.557Z,21.59
2016-05-14T11:52:16.576Z,21.67
2016-05-14T11:53:16.595Z,21.58
2016-05-14T11:54:16.628Z,21.59
2016-05-14T11:55:16.662Z,21.61
2016-05-14T11:56:16.523Z,21.68
2016-05-14T11:57:16.698Z,21.72
2016-05-14T11:58:16.733Z,21.69
2016-05-14T11:59:16.750Z,21.67
2016-05-14T12:00:16.628Z,21.71
2016-05-14T12:01:16.818Z,21.71
2016-05-14T12:02:16.836Z,21.72
2016-05-14T12:03:17.355Z,21.68
2016-05-14T12:04:16.592Z,21.58
2016-05-14T12:05:16.907Z,21.53
2016-05-14T12:06:16.988Z,21.71
2016-05-14T12:07:16.991Z,21.68
2016-05-14T12:08:16.993Z,21.52
2016-05-14T12:09:17.028Z,21.67
2016-05-14T12:10:17.045Z,21.71
2016-05-14T12:11:16.923Z,21.67
2016-05-14T12:12:17.098Z,21.68
2016-05-14T12:13:16.819Z,21.54
2016-05-14T12:14:17.166Z,21.69
2016-05-14T12:15:17.185Z,21.62
2016-05-14T12:16:17.203Z,21.69
2016-05-14T12:17:17.096Z,21.67
2016-05-14T12:18:17.240Z,21.67
2016-05-14T12:19:17.585Z,21.69
2016-05-14T12:20:17.323Z,21.69
2016-05-14T12:21:17.201Z,21.64
2016-05-14T12:22:17.390Z,21.62
2016-05-14T12:23:17.409Z,21.72
2016-05-14T12:24:17.443Z,21.75
2016-05-14T12:25:17.305Z,21.71
2016-05-14T12:26:17.479Z,21.71
2016-05-14T12:27:17.514Z,21.67
2016-05-14T12:28:17.375Z,21.71
2016-05-14T12:29:17.566Z,21.69
2016-05-14T12:30:17.584Z,21.68
2016-05-14T12:31:17.617Z,21.69
2016-05-14T12:32:17.636Z,21.72
2016-05-14T12:33:17.669Z,21.69
2016-05-14T12:34:18.360Z,21.75
2016-05-14T12:35:17.722Z,21.69
2016-05-14T12:36:17.585Z,21.69
2016-05-14T12:37:17.774Z,21.69
2016-05-14T12:38:17.652Z,21.71
2016-05-14T12:39:17.827Z,21.75
2016-05-14T12:40:17.861Z,21.69
2016-05-14T12:41:17.895Z,21.69
2016-05-14T12:42:17.913Z,21.69
2016-05-14T12:43:17.932Z,21.75
2016-05-14T12:44:17.966Z,21.68
2016-05-14T12:45:17.984Z,21.68
2016-05-14T12:46:17.862Z,21.71
2016-05-14T12:47:18.035Z,21.69
2016-05-14T12:48:18.117Z,21.65
2016-05-14T12:49:18.245Z,21.58
2016-05-14T12:50:18.122Z,21.65
2016-05-14T12:51:18.157Z,21.53
2016-05-14T12:52:18.190Z,21.61
2016-05-14T12:53:18.192Z,21.65
2016-05-14T12:54:18.226Z,21.58
2016-05-14T12:55:18.245Z,21.58
2016-05-14T12:56:18.279Z,21.58